TimeEDT,TemperatureF,Dew PointF,Humidity,Sea Level PressureIn,VisibilityMPH,Wind Direction,Wind SpeedMPH,Gust SpeedMPH,PrecipitationIn,Events,Conditions,WindDirDegrees,DateUTC
12:54 AM,25.0,21.0,85,30.32,10.0,Calm,Calm,-,N/A,,Clear,0,2013-03-10 05:54:00
1:54 AM,25.0,21.0,85,30.32,10.0,Calm,Calm,-,N/A,,Clear,0,2013-03-10 06:54:00
3:54 AM,26.1,21.0,81,30.31,10.0,Calm,Calm,-,N/A,,Clear,0,2013-03-10 07:54:00
4:54 AM,26.1,21.0,81,30.32,10.0,Calm,Calm,-,N/A,,Clear,0,2013-03-10 08:54:00
5:54 AM,25.0,21.0,85,30.33,10.0,Calm,Calm,-,N/A,,Clear,0,2013-03-10 09:54:00
6:54 AM,24.1,21.0,88,30.34,10.0,Calm,Calm,-,N/A,,Clear,0,2013-03-10 10:54:00
8:54 AM,36.0,33.1,89,30.35,7.0,East,3.5,-,N/A,,Clear,80,2013-03-10 12:54:00
9:54 AM,42.1,35.1,76,30.36,10.0,East,6.9,-,N/A,,Clear,90,2013-03-10 13:54:00
10:54 AM,46.0,34.0,63,30.35,10.0,East,6.9,-,N/A,,Clear,90,2013-03-10 14:54:00
11:54 AM,51.1,34.0,52,30.36,10.0,East,5.8,-,N/A,,Clear,90,2013-03-10 15:54:00
12:54 PM,53.1,34.0,48,30.36,10.0,SE,4.6,-,N/A,,Clear,140,2013-03-10 16:54:00
1:54 PM,54.0,33.1,45,30.33,10.0,ENE,5.8,-,N/A,,Clear,70,2013-03-10 17:54:00
2:54 PM,55.0,28.9,37,30.31,10.0,SE,6.9,-,N/A,,Clear,130,2013-03-10 18:54:00
3:54 PM,55.0,32.0,42,30.30,10.0,Variable,4.6,-,N/A,,Clear,0,2013-03-10 19:54:00
4:54 PM,52.0,33.1,49,30.30,10.0,ESE,10.4,-,N/A,,Clear,120,2013-03-10 20:54:00
5:54 PM,48.9,34.0,56,30.30,10.0,SE,8.1,-,N/A,,Clear,130,2013-03-10 21:54:00
6:54 PM,43.0,34.0,71,30.31,10.0,SE,10.4,-,N/A,,Clear,130,2013-03-10 22:54:00
7:54 PM,39.9,34.0,79,30.32,10.0,SE,6.9,-,N/A,,Clear,130,2013-03-10 23:54:00
8:54 PM,37.0,33.1,86,30.32,10.0,East,5.8,-,N/A,,Clear,100,2013-03-11 00:54:00
10:54 PM,34.0,32.0,92,30.31,9.0,ESE,3.5,-,N/A,,Clear,120,2013-03-11 02:54:00
11:54 PM,32.0,30.0,92,30.31,5.0,Calm,Calm,-,N/A,,Clear,0,2013-03-11 03:54:00